sensor_id;sensor_type;location;lat;lon;timestamp;temperature;humidity
11079;DHT22;5592;49.234;7.268;2022-08-19T00:01:37;18.10;99.90
11079;DHT22;5592;49.234;7.268;2022-08-19T00:04:06;18.10;99.90
11079;DHT22;5592;49.234;7.268;2022-08-19T00:06:31;18.00;99.90
11079;DHT22;5592;49.234;7.268;2022-08-19T00:08:58;18.00;99.90
11079;DHT22;5592;49.234;7.268;2022-08-19T00:11:26;18.00;99.90
11079;DHT22;5592;49.234;7.268;2022-08-19T00:13:55;18.00;99.90
11079;DHT22;5592;49.234;7.268;2022-08-19T00:16:22;18.00;99.90
11079;DHT22;5592;49.234;7.268;2022-08-19T00:18:48;18.00;99.90
11079;DHT22;5592;49.234;7.268;2022-08-19T00:21:14;17.90;99.90
11079;DHT22;5592;49.234;7.268;2022-08-19T00:23:42;17.90;99.90
11079;DHT22;5592;49.234;7.268;2022-08-19T00:26:09;17.90;99.90
11079;DHT22;5592;49.234;7.268;2022-08-19T00:28:35;17.90;99.90
11079;DHT22;5592;49.234;7.268;2022-08-19T00:31:02;17.90;99.90
11079;DHT22;5592;49.234;7.268;2022-08-19T00:33:29;17.90;99.90
11079;DHT22;5592;49.234;7.268;2022-08-19T00:35:58;17.90;99.90
11079;DHT22;5592;49.234;7.268;2022-08-19T00:38:24;17.90;99.90
11079;DHT22;5592;49.234;7.268;2022-08-19T00:40:49;17.90;99.90
11079;DHT22;5592;49.234;7.268;2022-08-19T00:43:20;17.90;99.90
11079;DHT22;5592;49.234;7.268;2022-08-19T00:45:47;17.90;99.90
11079;DHT22;5592;49.234;7.268;2022-08-19T00:48:13;18.00;99.90
11079;DHT22;5592;49.234;7.268;2022-08-19T00:50:40;17.90;99.90
11079;DHT22;5592;49.234;7.268;2022-08-19T00:53:09;17.90;99.90
11079;DHT22;5592;49.234;7.268;2022-08-19T00:55:37;17.90;99.90
11079;DHT22;5592;49.234;7.268;2022-08-19T00:58:09;17.90;99.90
11079;DHT22;5592;49.234;7.268;2022-08-19T01:00:35;17.80;99.90
11079;DHT22;5592;49.234;7.268;2022-08-19T01:03:08;17.80;99.90
11079;DHT22;5592;49.234;7.268;2022-08-19T01:05:35;17.80;99.90
11079;DHT22;5592;49.234;7.268;2022-08-19T01:08:04;17.80;99.90
11079;DHT22;5592;49.234;7.268;2022-08-19T01:10:36;17.70;99.90
11079;DHT22;5592;49.234;7.268;2022-08-19T01:13:03;17.70;99.90
11079;DHT22;5592;49.234;7.268;2022-08-19T01:15:32;17.70;99.90
11079;DHT22;5592;49.234;7.268;2022-08-19T01:18:03;17.70;99.90
11079;DHT22;5592;49.234;7.268;2022-08-19T01:20:29;17.70;99.90
11079;DHT22;5592;49.234;7.268;2022-08-19T01:22:57;17.80;99.90
11079;DHT22;5592;49.234;7.268;2022-08-19T01:25:46;17.80;99.90
11079;DHT22;5592;49.234;7.268;2022-08-19T01:28:30;17.80;99.90
11079;DHT22;5592;49.234;7.268;2022-08-19T01:30:55;17.70;99.90
11079;DHT22;5592;49.234;7.268;2022-08-19T01:33:21;17.80;99.90
11079;DHT22;5592;49.234;7.268;2022-08-19T01:35:48;17.70;99.90
11079;DHT22;5592;49.234;7.268;2022-08-19T01:38:26;17.70;99.90
11079;DHT22;5592;49.234;7.268;2022-08-19T01:40:53;17.70;99.90
11079;DHT22;5592;49.234;7.268;2022-08-19T01:43:19;17.70;99.90
11079;DHT22;5592;49.234;7.268;2022-08-19T01:45:46;17.70;99.90
11079;DHT22;5592;49.234;7.268;2022-08-19T01:48:12;17.70;99.90
11079;DHT22;5592;49.234;7.268;2022-08-19T01:50:39;17.70;99.90
11079;DHT22;5592;49.234;7.268;2022-08-19T01:53:10;17.70;99.90
11079;DHT22;5592;49.234;7.268;2022-08-19T01:55:40;17.60;99.90
11079;DHT22;5592;49.234;7.268;2022-08-19T01:58:18;17.70;99.90
11079;DHT22;5592;49.234;7.268;2022-08-19T02:00:45;17.70;99.90
11079;DHT22;5592;49.234;7.268;2022-08-19T02:03:11;17.60;99.90
11079;DHT22;5592;49.234;7.268;2022-08-19T02:05:38;17.60;99.90
11079;DHT22;5592;49.234;7.268;2022-08-19T02:08:04;17.60;99.90
11079;DHT22;5592;49.234;7.268;2022-08-19T02:10:30;17.60;99.90
11079;DHT22;5592;49.234;7.268;2022-08-19T02:12:57;17.60;99.90
11079;DHT22;5592;49.234;7.268;2022-08-19T02:15:23;17.50;99.90
11079;DHT22;5592;49.234;7.268;2022-08-19T02:17:51;17.50;99.90
11079;DHT22;5592;49.234;7.268;2022-08-19T02:20:17;17.60;99.90
11079;DHT22;5592;49.234;7.268;2022-08-19T02:22:46;17.50;99.90
11079;DHT22;5592;49.234;7.268;2022-08-19T02:25:13;17.40;99.90
11079;DHT22;5592;49.234;7.268;2022-08-19T02:27:40;17.40;99.90
11079;DHT22;5592;49.234;7.268;2022-08-19T02:30:07;17.40;99.90
11079;DHT22;5592;49.234;7.268;2022-08-19T02:32:33;17.30;99.90
11079;DHT22;5592;49.234;7.268;2022-08-19T02:34:59;17.30;99.90
11079;DHT22;5592;49.234;7.268;2022-08-19T02:37:25;17.30;99.90
11079;DHT22;5592;49.234;7.268;2022-08-19T02:40:09;17.20;99.90
11079;DHT22;5592;49.234;7.268;2022-08-19T02:42:35;17.20;99.90
11079;DHT22;5592;49.234;7.268;2022-08-19T02:45:01;17.10;99.90
11079;DHT22;5592;49.234;7.268;2022-08-19T02:47:27;17.10;99.90
11079;DHT22;5592;49.234;7.268;2022-08-19T02:49:52;17.10;99.90
11079;DHT22;5592;49.234;7.268;2022-08-19T02:52:18;17.10;99.90
11079;DHT22;5592;49.234;7.268;2022-08-19T02:54:43;17.10;99.90
11079;DHT22;5592;49.234;7.268;2022-08-19T02:57:10;17.00;99.90
11079;DHT22;5592;49.234;7.268;2022-08-19T02:59:35;17.00;99.90
11079;DHT22;5592;49.234;7.268;2022-08-19T03:02:01;17.00;99.90
11079;DHT22;5592;49.234;7.268;2022-08-19T03:04:27;17.00;99.90
11079;DHT22;5592;49.234;7.268;2022-08-19T03:06:52;16.90;99.90
11079;DHT22;5592;49.234;7.268;2022-08-19T03:09:19;16.90;99.90
11079;DHT22;5592;49.234;7.268;2022-08-19T03:11:45;16.80;99.90
11079;DHT22;5592;49.234;7.268;2022-08-19T03:14:12;16.80;99.90
11079;DHT22;5592;49.234;7.268;2022-08-19T03:16:50;16.80;99.90
11079;DHT22;5592;49.234;7.268;2022-08-19T03:19:17;16.80;99.90
11079;DHT22;5592;49.234;7.268;2022-08-19T03:21:44;16.70;99.90
11079;DHT22;5592;49.234;7.268;2022-08-19T03:24:11;16.70;99.90
11079;DHT22;5592;49.234;7.268;2022-08-19T03:26:42;16.70;99.90
11079;DHT22;5592;49.234;7.268;2022-08-19T03:29:08;16.70;99.90
11079;DHT22;5592;49.234;7.268;2022-08-19T03:31:36;16.70;99.90
11079;DHT22;5592;49.234;7.268;2022-08-19T03:34:02;16.60;99.90
11079;DHT22;5592;49.234;7.268;2022-08-19T03:36:28;16.60;99.90
11079;DHT22;5592;49.234;7.268;2022-08-19T03:38:57;16.50;99.90
11079;DHT22;5592;49.234;7.268;2022-08-19T03:41:32;16.50;99.90
11079;DHT22;5592;49.234;7.268;2022-08-19T03:43:58;16.40;99.90
11079;DHT22;5592;49.234;7.268;2022-08-19T03:46:29;16.40;99.90
11079;DHT22;5592;49.234;7.268;2022-08-19T03:48:57;16.40;99.90
11079;DHT22;5592;49.234;7.268;2022-08-19T03:51:31;16.40;99.90
11079;DHT22;5592;49.234;7.268;2022-08-19T03:54:00;16.40;99.90
11079;DHT22;5592;49.234;7.268;2022-08-19T03:56:28;16.40;99.90
11079;DHT22;5592;49.234;7.268;2022-08-19T03:58:54;16.40;99.90
11079;DHT22;5592;49.234;7.268;2022-08-19T04:01:23;16.40;99.90
11079;DHT22;5592;49.234;7.268;2022-08-19T04:03:49;16.30;99.90
11079;DHT22;5592;49.234;7.268;2022-08-19T04:06:23;16.20;99.90
11079;DHT22;5592;49.234;7.268;2022-08-19T04:08:50;16.20;99.90
11079;DHT22;5592;49.234;7.268;2022-08-19T04:11:30;16.10;99.90
11079;DHT22;5592;49.234;7.268;2022-08-19T04:13:56;16.10;99.90
11079;DHT22;5592;49.234;7.268;2022-08-19T04:16:24;16.10;99.90
11079;DHT22;5592;49.234;7.268;2022-08-19T04:18:50;16.00;99.90
11079;DHT22;5592;49.234;7.268;2022-08-19T04:21:22;16.00;99.90
11079;DHT22;5592;49.234;7.268;2022-08-19T04:23:48;16.10;99.90
11079;DHT22;5592;49.234;7.268;2022-08-19T04:26:19;16.10;99.90
11079;DHT22;5592;49.234;7.268;2022-08-19T04:28:46;16.10;99.90
11079;DHT22;5592;49.234;7.268;2022-08-19T04:31:18;16.10;99.90
11079;DHT22;5592;49.234;7.268;2022-08-19T04:33:44;16.00;99.90
11079;DHT22;5592;49.234;7.268;2022-08-19T04:36:21;16.00;99.90
11079;DHT22;5592;49.234;7.268;2022-08-19T04:38:48;15.90;99.90
11079;DHT22;5592;49.234;7.268;2022-08-19T04:41:14;15.90;99.90
11079;DHT22;5592;49.234;7.268;2022-08-19T04:43:59;15.80;99.90
11079;DHT22;5592;49.234;7.268;2022-08-19T04:46:25;15.80;99.90
11079;DHT22;5592;49.234;7.268;2022-08-19T04:48:51;15.80;99.90
11079;DHT22;5592;49.234;7.268;2022-08-19T04:51:18;15.90;99.90
11079;DHT22;5592;49.234;7.268;2022-08-19T04:53:43;15.90;99.90
11079;DHT22;5592;49.234;7.268;2022-08-19T04:56:14;15.90;99.90
11079;DHT22;5592;49.234;7.268;2022-08-19T04:58:42;15.90;99.90
11079;DHT22;5592;49.234;7.268;2022-08-19T05:01:09;15.80;99.90
11079;DHT22;5592;49.234;7.268;2022-08-19T05:03:36;15.80;99.90
11079;DHT22;5592;49.234;7.268;2022-08-19T05:06:14;15.80;99.90
11079;DHT22;5592;49.234;7.268;2022-08-19T05:08:41;15.80;99.90
11079;DHT22;5592;49.234;7.268;2022-08-19T05:11:24;15.90;99.90
11079;DHT22;5592;49.234;7.268;2022-08-19T05:13:51;15.90;99.90
11079;DHT22;5592;49.234;7.268;2022-08-19T05:16:19;15.90;99.90
11079;DHT22;5592;49.234;7.268;2022-08-19T05:18:45;16.00;99.90
11079;DHT22;5592;49.234;7.268;2022-08-19T05:24:20;16.20;99.90
11079;DHT22;5592;49.234;7.268;2022-08-19T05:26:49;16.30;99.90
11079;DHT22;5592;49.234;7.268;2022-08-19T05:29:17;16.30;99.90
11079;DHT22;5592;49.234;7.268;2022-08-19T05:31:44;16.50;99.90
11079;DHT22;5592;49.234;7.268;2022-08-19T05:34:10;16.60;99.90
11079;DHT22;5592;49.234;7.268;2022-08-19T05:36:38;16.70;99.90
11079;DHT22;5592;49.234;7.268;2022-08-19T05:39:06;16.80;99.90
11079;DHT22;5592;49.234;7.268;2022-08-19T05:41:32;16.90;99.90
11079;DHT22;5592;49.234;7.268;2022-08-19T05:44:00;16.90;99.90
11079;DHT22;5592;49.234;7.268;2022-08-19T05:46:26;16.90;99.90
11079;DHT22;5592;49.234;7.268;2022-08-19T05:48:52;17.00;99.90
11079;DHT22;5592;49.234;7.268;2022-08-19T05:51:18;17.10;99.90
11079;DHT22;5592;49.234;7.268;2022-08-19T05:53:44;17.20;99.90
11079;DHT22;5592;49.234;7.268;2022-08-19T05:56:15;17.40;99.90
11079;DHT22;5592;49.234;7.268;2022-08-19T05:58:42;17.60;99.90
11079;DHT22;5592;49.234;7.268;2022-08-19T06:01:15;17.90;99.90
11079;DHT22;5592;49.234;7.268;2022-08-19T06:03:41;18.10;99.90
11079;DHT22;5592;49.234;7.268;2022-08-19T06:06:08;18.30;99.90
11079;DHT22;5592;49.234;7.268;2022-08-19T06:08:35;18.50;99.90
11079;DHT22;5592;49.234;7.268;2022-08-19T06:11:42;18.80;99.90
11079;DHT22;5592;49.234;7.268;2022-08-19T06:14:11;19.20;99.90
11079;DHT22;5592;49.234;7.268;2022-08-19T06:16:39;19.50;99.90
11079;DHT22;5592;49.234;7.268;2022-08-19T06:19:07;19.80;99.90
11079;DHT22;5592;49.234;7.268;2022-08-19T06:21:35;20.10;99.90
11079;DHT22;5592;49.234;7.268;2022-08-19T06:24:04;20.40;99.90
11079;DHT22;5592;49.234;7.268;2022-08-19T06:26:30;20.70;99.90
11079;DHT22;5592;49.234;7.268;2022-08-19T06:28:56;21.00;99.90
11079;DHT22;5592;49.234;7.268;2022-08-19T06:31:25;21.40;99.90
11079;DHT22;5592;49.234;7.268;2022-08-19T06:33:52;21.60;99.90
11079;DHT22;5592;49.234;7.268;2022-08-19T06:36:38;21.60;99.90
11079;DHT22;5592;49.234;7.268;2022-08-19T06:39:12;21.70;99.90
11079;DHT22;5592;49.234;7.268;2022-08-19T06:41:41;21.90;99.90
11079;DHT22;5592;49.234;7.268;2022-08-19T06:44:07;22.10;99.90
11079;DHT22;5592;49.234;7.268;2022-08-19T06:46:33;22.40;99.90
11079;DHT22;5592;49.234;7.268;2022-08-19T06:48:59;22.60;99.90
11079;DHT22;5592;49.234;7.268;2022-08-19T06:51:25;22.80;99.90
11079;DHT22;5592;49.234;7.268;2022-08-19T06:53:53;22.90;99.90
11079;DHT22;5592;49.234;7.268;2022-08-19T06:56:26;23.20;99.90
11079;DHT22;5592;49.234;7.268;2022-08-19T06:58:59;23.50;99.90
11079;DHT22;5592;49.234;7.268;2022-08-19T07:01:26;23.90;99.90
11079;DHT22;5592;49.234;7.268;2022-08-19T07:03:51;24.60;99.90
11079;DHT22;5592;49.234;7.268;2022-08-19T07:06:18;25.20;99.90
11079;DHT22;5592;49.234;7.268;2022-08-19T07:08:46;25.80;99.90
11079;DHT22;5592;49.234;7.268;2022-08-19T07:11:15;26.60;99.90
11079;DHT22;5592;49.234;7.268;2022-08-19T07:13:43;27.60;99.90
11079;DHT22;5592;49.234;7.268;2022-08-19T07:16:14;28.20;99.90
11079;DHT22;5592;49.234;7.268;2022-08-19T07:18:40;28.70;99.90
11079;DHT22;5592;49.234;7.268;2022-08-19T07:21:26;29.00;99.90
11079;DHT22;5592;49.234;7.268;2022-08-19T07:23:54;29.10;99.90
11079;DHT22;5592;49.234;7.268;2022-08-19T07:26:27;29.50;99.90
11079;DHT22;5592;49.234;7.268;2022-08-19T07:28:54;30.40;99.90
11079;DHT22;5592;49.234;7.268;2022-08-19T07:31:22;31.20;99.90
11079;DHT22;5592;49.234;7.268;2022-08-19T07:33:50;31.70;99.90
11079;DHT22;5592;49.234;7.268;2022-08-19T07:36:19;31.40;99.90
11079;DHT22;5592;49.234;7.268;2022-08-19T07:38:46;31.10;99.90
11079;DHT22;5592;49.234;7.268;2022-08-19T07:41:17;31.00;99.90
11079;DHT22;5592;49.234;7.268;2022-08-19T07:43:43;30.60;99.90
11079;DHT22;5592;49.234;7.268;2022-08-19T07:46:10;30.50;99.90
11079;DHT22;5592;49.234;7.268;2022-08-19T07:48:36;30.20;99.90
11079;DHT22;5592;49.234;7.268;2022-08-19T07:51:05;29.90;99.90
11079;DHT22;5592;49.234;7.268;2022-08-19T07:53:31;29.60;99.90
11079;DHT22;5592;49.234;7.268;2022-08-19T07:55:58;29.40;99.90
11079;DHT22;5592;49.234;7.268;2022-08-19T07:58:35;29.60;99.90
11079;DHT22;5592;49.234;7.268;2022-08-19T08:01:02;29.60;99.90
11079;DHT22;5592;49.234;7.268;2022-08-19T08:03:29;29.70;99.90
11079;DHT22;5592;49.234;7.268;2022-08-19T08:06:15;30.00;99.90
11079;DHT22;5592;49.234;7.268;2022-08-19T08:08:59;30.30;99.90
11079;DHT22;5592;49.234;7.268;2022-08-19T08:14:21;29.80;99.90
11079;DHT22;5592;49.234;7.268;2022-08-19T08:16:48;30.40;99.90
11079;DHT22;5592;49.234;7.268;2022-08-19T08:19:17;30.90;99.90
11079;DHT22;5592;49.234;7.268;2022-08-19T08:21:43;31.50;99.90
11079;DHT22;5592;49.234;7.268;2022-08-19T08:24:10;32.00;99.90
11079;DHT22;5592;49.234;7.268;2022-08-19T08:26:36;32.60;99.90
11079;DHT22;5592;49.234;7.268;2022-08-19T08:29:02;33.20;99.90
11079;DHT22;5592;49.234;7.268;2022-08-19T08:31:28;33.80;99.90
11079;DHT22;5592;49.234;7.268;2022-08-19T08:33:54;34.20;99.90
11079;DHT22;5592;49.234;7.268;2022-08-19T08:36:20;34.40;99.90
11079;DHT22;5592;49.234;7.268;2022-08-19T08:38:46;35.00;99.90
11079;DHT22;5592;49.234;7.268;2022-08-19T08:44:32;36.20;95.60
11079;DHT22;5592;49.234;7.268;2022-08-19T08:47:09;36.50;94.40
11079;DHT22;5592;49.234;7.268;2022-08-19T08:52:21;36.50;91.40
11079;DHT22;5592;49.234;7.268;2022-08-19T08:54:49;36.60;90.30
11079;DHT22;5592;49.234;7.268;2022-08-19T08:57:27;37.40;89.40
11079;DHT22;5592;49.234;7.268;2022-08-19T08:59:56;37.00;84.90
11079;DHT22;5592;49.234;7.268;2022-08-19T09:02:22;37.10;86.40
11079;DHT22;5592;49.234;7.268;2022-08-19T09:04:48;37.40;84.80
11079;DHT22;5592;49.234;7.268;2022-08-19T09:13:04;37.50;80.30
11079;DHT22;5592;49.234;7.268;2022-08-19T09:15:38;37.50;78.00
11079;DHT22;5592;49.234;7.268;2022-08-19T09:18:05;36.70;77.80
11079;DHT22;5592;49.234;7.268;2022-08-19T09:20:33;36.30;79.20
11079;DHT22;5592;49.234;7.268;2022-08-19T09:22:59;36.10;78.70
11079;DHT22;5592;49.234;7.268;2022-08-19T09:25:25;36.20;78.30
11079;DHT22;5592;49.234;7.268;2022-08-19T09:27:52;36.40;78.60
11079;DHT22;5592;49.234;7.268;2022-08-19T09:30:25;37.10;76.20
11079;DHT22;5592;49.234;7.268;2022-08-19T09:32:52;37.20;75.60
11079;DHT22;5592;49.234;7.268;2022-08-19T09:35:22;36.00;76.40
11079;DHT22;5592;49.234;7.268;2022-08-19T09:37:49;35.20;79.00
11079;DHT22;5592;49.234;7.268;2022-08-19T09:40:16;35.40;78.20
11079;DHT22;5592;49.234;7.268;2022-08-19T09:42:46;35.80;77.40
11079;DHT22;5592;49.234;7.268;2022-08-19T09:45:17;36.20;74.90
11079;DHT22;5592;49.234;7.268;2022-08-19T09:47:43;36.10;74.90
11079;DHT22;5592;49.234;7.268;2022-08-19T09:50:10;36.60;75.00
11079;DHT22;5592;49.234;7.268;2022-08-19T09:52:36;37.10;73.70
11079;DHT22;5592;49.234;7.268;2022-08-19T09:55:07;36.80;73.00
11079;DHT22;5592;49.234;7.268;2022-08-19T09:57:33;36.20;74.30
11079;DHT22;5592;49.234;7.268;2022-08-19T09:59:59;36.10;72.20
11079;DHT22;5592;49.234;7.268;2022-08-19T10:02:25;36.10;72.60
11079;DHT22;5592;49.234;7.268;2022-08-19T10:04:51;36.40;73.70
11079;DHT22;5592;49.234;7.268;2022-08-19T10:07:35;37.40;70.20
11079;DHT22;5592;49.234;7.268;2022-08-19T10:10:03;38.00;69.40
11079;DHT22;5592;49.234;7.268;2022-08-19T10:12:28;37.80;68.70
11079;DHT22;5592;49.234;7.268;2022-08-19T10:14:54;37.00;70.00
11079;DHT22;5592;49.234;7.268;2022-08-19T10:17:21;36.10;70.80
11079;DHT22;5592;49.234;7.268;2022-08-19T10:19:47;35.10;70.30
11079;DHT22;5592;49.234;7.268;2022-08-19T10:22:13;33.80;73.00
11079;DHT22;5592;49.234;7.268;2022-08-19T10:24:39;32.50;75.20
11079;DHT22;5592;49.234;7.268;2022-08-19T10:27:05;31.60;77.70
11079;DHT22;5592;49.234;7.268;2022-08-19T10:29:31;31.40;79.30
11079;DHT22;5592;49.234;7.268;2022-08-19T10:32:00;32.60;78.60
11079;DHT22;5592;49.234;7.268;2022-08-19T10:34:27;34.00;75.10
11079;DHT22;5592;49.234;7.268;2022-08-19T10:36:53;35.00;72.10
11079;DHT22;5592;49.234;7.268;2022-08-19T10:39:19;35.80;69.80
11079;DHT22;5592;49.234;7.268;2022-08-19T10:41:44;35.80;67.00
11079;DHT22;5592;49.234;7.268;2022-08-19T10:44:12;36.10;66.80
11079;DHT22;5592;49.234;7.268;2022-08-19T10:46:41;36.40;67.50
11079;DHT22;5592;49.234;7.268;2022-08-19T10:49:08;36.80;63.50
11079;DHT22;5592;49.234;7.268;2022-08-19T10:51:34;36.60;64.90
11079;DHT22;5592;49.234;7.268;2022-08-19T10:54:19;36.90;64.50
11079;DHT22;5592;49.234;7.268;2022-08-19T10:56:45;35.50;63.70
11079;DHT22;5592;49.234;7.268;2022-08-19T10:59:27;35.00;65.20
11079;DHT22;5592;49.234;7.268;2022-08-19T11:01:58;34.70;65.90
11079;DHT22;5592;49.234;7.268;2022-08-19T11:04:24;34.60;65.00
11079;DHT22;5592;49.234;7.268;2022-08-19T11:06:49;33.70;67.80
11079;DHT22;5592;49.234;7.268;2022-08-19T11:09:18;33.20;66.90
11079;DHT22;5592;49.234;7.268;2022-08-19T11:11:44;32.40;68.60
11079;DHT22;5592;49.234;7.268;2022-08-19T11:14:13;31.40;70.10
11079;DHT22;5592;49.234;7.268;2022-08-19T11:16:40;30.40;72.00
11079;DHT22;5592;49.234;7.268;2022-08-19T11:19:07;30.10;74.70
11079;DHT22;5592;49.234;7.268;2022-08-19T11:21:39;30.70;73.90
11079;DHT22;5592;49.234;7.268;2022-08-19T11:24:12;31.50;72.60
11079;DHT22;5592;49.234;7.268;2022-08-19T11:26:39;32.20;69.70
11079;DHT22;5592;49.234;7.268;2022-08-19T11:29:07;32.40;68.40
11079;DHT22;5592;49.234;7.268;2022-08-19T11:31:37;32.60;69.80
11079;DHT22;5592;49.234;7.268;2022-08-19T11:34:06;32.70;68.70
11079;DHT22;5592;49.234;7.268;2022-08-19T11:36:33;33.00;68.20
11079;DHT22;5592;49.234;7.268;2022-08-19T11:39:00;33.30;68.50
11079;DHT22;5592;49.234;7.268;2022-08-19T11:41:26;33.10;68.10
11079;DHT22;5592;49.234;7.268;2022-08-19T11:43:53;33.30;66.90
11079;DHT22;5592;49.234;7.268;2022-08-19T11:46:21;33.30;67.10
11079;DHT22;5592;49.234;7.268;2022-08-19T11:48:48;33.10;67.90
11079;DHT22;5592;49.234;7.268;2022-08-19T11:51:18;33.00;68.20
11079;DHT22;5592;49.234;7.268;2022-08-19T11:53:45;32.20;67.60
11079;DHT22;5592;49.234;7.268;2022-08-19T11:56:13;31.70;67.70
11079;DHT22;5592;49.234;7.268;2022-08-19T11:58:39;31.80;66.70
11079;DHT22;5592;49.234;7.268;2022-08-19T12:01:08;31.90;66.00
11079;DHT22;5592;49.234;7.268;2022-08-19T12:03:35;32.20;67.00
11079;DHT22;5592;49.234;7.268;2022-08-19T12:06:05;32.30;64.70
11079;DHT22;5592;49.234;7.268;2022-08-19T12:08:32;32.10;65.40
11079;DHT22;5592;49.234;7.268;2022-08-19T12:10:57;32.50;66.00
11079;DHT22;5592;49.234;7.268;2022-08-19T12:13:23;32.30;65.50
11079;DHT22;5592;49.234;7.268;2022-08-19T12:15:49;32.00;65.80
11079;DHT22;5592;49.234;7.268;2022-08-19T12:18:15;31.80;64.10
11079;DHT22;5592;49.234;7.268;2022-08-19T12:20:42;32.00;65.70
11079;DHT22;5592;49.234;7.268;2022-08-19T12:23:09;32.10;64.60
11079;DHT22;5592;49.234;7.268;2022-08-19T12:25:36;32.10;65.90
11079;DHT22;5592;49.234;7.268;2022-08-19T12:28:02;32.30;65.80
11079;DHT22;5592;49.234;7.268;2022-08-19T12:30:28;32.30;62.80
11079;DHT22;5592;49.234;7.268;2022-08-19T12:32:54;32.20;63.10
11079;DHT22;5592;49.234;7.268;2022-08-19T12:35:20;32.40;62.80
11079;DHT22;5592;49.234;7.268;2022-08-19T12:37:47;32.40;60.80
11079;DHT22;5592;49.234;7.268;2022-08-19T12:40:15;31.70;61.40
11079;DHT22;5592;49.234;7.268;2022-08-19T12:42:41;31.20;62.10
11079;DHT22;5592;49.234;7.268;2022-08-19T12:45:09;31.30;63.00
11079;DHT22;5592;49.234;7.268;2022-08-19T12:47:35;31.20;63.50
11079;DHT22;5592;49.234;7.268;2022-08-19T12:50:01;31.40;63.60
11079;DHT22;5592;49.234;7.268;2022-08-19T12:52:27;31.50;63.50
11079;DHT22;5592;49.234;7.268;2022-08-19T12:54:55;31.40;65.00
11079;DHT22;5592;49.234;7.268;2022-08-19T12:57:23;31.10;63.90
11079;DHT22;5592;49.234;7.268;2022-08-19T12:59:52;30.90;65.90
11079;DHT22;5592;49.234;7.268;2022-08-19T13:02:21;30.80;70.60
11079;DHT22;5592;49.234;7.268;2022-08-19T13:04:47;30.70;74.20
11079;DHT22;5592;49.234;7.268;2022-08-19T13:07:13;30.70;76.40
11079;DHT22;5592;49.234;7.268;2022-08-19T13:09:39;30.90;76.30
11079;DHT22;5592;49.234;7.268;2022-08-19T13:12:08;30.80;78.30
11079;DHT22;5592;49.234;7.268;2022-08-19T13:14:38;30.90;76.70
11079;DHT22;5592;49.234;7.268;2022-08-19T13:17:06;30.40;76.20
11079;DHT22;5592;49.234;7.268;2022-08-19T13:19:31;30.10;76.40
11079;DHT22;5592;49.234;7.268;2022-08-19T13:21:57;30.00;78.20
11079;DHT22;5592;49.234;7.268;2022-08-19T13:24:24;30.00;78.20
11079;DHT22;5592;49.234;7.268;2022-08-19T13:26:50;30.20;79.70
11079;DHT22;5592;49.234;7.268;2022-08-19T13:29:15;30.00;80.20
11079;DHT22;5592;49.234;7.268;2022-08-19T13:31:59;29.80;80.80
11079;DHT22;5592;49.234;7.268;2022-08-19T13:34:43;29.70;81.20
11079;DHT22;5592;49.234;7.268;2022-08-19T13:37:11;29.60;81.60
11079;DHT22;5592;49.234;7.268;2022-08-19T13:39:37;29.20;81.50
11079;DHT22;5592;49.234;7.268;2022-08-19T13:42:03;28.90;82.20
11079;DHT22;5592;49.234;7.268;2022-08-19T13:44:30;29.10;82.80
11079;DHT22;5592;49.234;7.268;2022-08-19T13:47:04;29.40;83.10
11079;DHT22;5592;49.234;7.268;2022-08-19T13:49:32;29.70;80.70
11079;DHT22;5592;49.234;7.268;2022-08-19T13:51:58;29.70;80.60
11079;DHT22;5592;49.234;7.268;2022-08-19T13:54:23;29.60;80.70
11079;DHT22;5592;49.234;7.268;2022-08-19T13:56:49;29.30;81.10
11079;DHT22;5592;49.234;7.268;2022-08-19T13:59:14;29.50;81.30
11079;DHT22;5592;49.234;7.268;2022-08-19T14:01:40;29.70;79.70
11079;DHT22;5592;49.234;7.268;2022-08-19T14:04:07;29.70;79.80
11079;DHT22;5592;49.234;7.268;2022-08-19T14:06:33;29.90;79.60
11079;DHT22;5592;49.234;7.268;2022-08-19T14:08:59;30.10;79.50
11079;DHT22;5592;49.234;7.268;2022-08-19T14:11:27;30.00;79.40
11079;DHT22;5592;49.234;7.268;2022-08-19T14:13:53;30.00;79.60
11079;DHT22;5592;49.234;7.268;2022-08-19T14:16:18;30.00;79.30
11079;DHT22;5592;49.234;7.268;2022-08-19T14:18:45;30.00;78.90
11079;DHT22;5592;49.234;7.268;2022-08-19T14:21:21;30.10;79.10
11079;DHT22;5592;49.234;7.268;2022-08-19T14:23:47;30.10;80.10
11079;DHT22;5592;49.234;7.268;2022-08-19T14:26:16;30.20;78.50
11079;DHT22;5592;49.234;7.268;2022-08-19T14:28:43;30.60;78.50
11079;DHT22;5592;49.234;7.268;2022-08-19T14:31:11;30.60;77.40
11079;DHT22;5592;49.234;7.268;2022-08-19T14:33:36;30.50;75.80
11079;DHT22;5592;49.234;7.268;2022-08-19T14:36:03;30.30;76.30
11079;DHT22;5592;49.234;7.268;2022-08-19T14:38:29;29.90;77.30
11079;DHT22;5592;49.234;7.268;2022-08-19T14:41:13;29.70;78.00
11079;DHT22;5592;49.234;7.268;2022-08-19T14:43:41;29.30;79.00
11079;DHT22;5592;49.234;7.268;2022-08-19T14:46:07;28.90;78.90
11079;DHT22;5592;49.234;7.268;2022-08-19T14:48:35;28.80;79.30
11079;DHT22;5592;49.234;7.268;2022-08-19T14:51:04;28.70;78.90
11079;DHT22;5592;49.234;7.268;2022-08-19T14:53:29;28.50;78.70
11079;DHT22;5592;49.234;7.268;2022-08-19T14:55:55;28.40;77.60
11079;DHT22;5592;49.234;7.268;2022-08-19T14:58:20;28.30;77.30
11079;DHT22;5592;49.234;7.268;2022-08-19T15:00:48;28.30;77.50
11079;DHT22;5592;49.234;7.268;2022-08-19T15:03:13;28.10;77.30
11079;DHT22;5592;49.234;7.268;2022-08-19T15:05:39;28.10;78.90
11079;DHT22;5592;49.234;7.268;2022-08-19T15:08:05;28.10;78.20
11079;DHT22;5592;49.234;7.268;2022-08-19T15:10:31;28.10;78.30
11079;DHT22;5592;49.234;7.268;2022-08-19T15:12:56;28.10;76.40
11079;DHT22;5592;49.234;7.268;2022-08-19T15:15:22;28.00;76.80
11079;DHT22;5592;49.234;7.268;2022-08-19T15:17:48;27.90;76.60
11079;DHT22;5592;49.234;7.268;2022-08-19T15:20:17;27.90;76.40
11079;DHT22;5592;49.234;7.268;2022-08-19T15:22:43;27.90;76.90
11079;DHT22;5592;49.234;7.268;2022-08-19T15:25:10;27.90;74.20
11079;DHT22;5592;49.234;7.268;2022-08-19T15:27:38;28.00;74.50
11079;DHT22;5592;49.234;7.268;2022-08-19T15:30:06;28.00;74.80
11079;DHT22;5592;49.234;7.268;2022-08-19T15:32:33;28.00;73.90
11079;DHT22;5592;49.234;7.268;2022-08-19T15:35:00;27.80;73.80
11079;DHT22;5592;49.234;7.268;2022-08-19T15:37:29;27.80;72.50
11079;DHT22;5592;49.234;7.268;2022-08-19T15:39:54;27.80;73.10
11079;DHT22;5592;49.234;7.268;2022-08-19T15:42:20;27.90;72.70
11079;DHT22;5592;49.234;7.268;2022-08-19T15:44:46;27.90;71.30
11079;DHT22;5592;49.234;7.268;2022-08-19T15:47:13;27.80;71.50
11079;DHT22;5592;49.234;7.268;2022-08-19T15:49:39;27.80;72.60
11079;DHT22;5592;49.234;7.268;2022-08-19T15:52:05;27.70;72.10
11079;DHT22;5592;49.234;7.268;2022-08-19T15:54:32;27.60;71.80
11079;DHT22;5592;49.234;7.268;2022-08-19T15:56:58;27.50;72.80
11079;DHT22;5592;49.234;7.268;2022-08-19T15:59:42;27.50;73.00
11079;DHT22;5592;49.234;7.268;2022-08-19T16:02:26;27.50;73.20
11079;DHT22;5592;49.234;7.268;2022-08-19T16:05:14;27.40;73.30
11079;DHT22;5592;49.234;7.268;2022-08-19T16:07:58;27.20;73.60
11079;DHT22;5592;49.234;7.268;2022-08-19T16:10:25;27.10;73.90